Time;durP1;ratioP1;P1;durP2;ratioP2;P2;SDS_P1;SDS_P2;PMS_P1;PMS_P2;Temp;Humidity;BMP_temperature;BMP_pressure;BME280_temperature;BME280_humidity;BME280_pressure;Samples;Min_cycle;Max_cycle;Signal;HPM_P1;HPM_P2
2021/03/01 00:02:20;;;;;;;27.38;18.58;;;;;;;3.13;100.00;101041.44;4953559;28;20031;-86
2021/03/01 00:04:47;;;;;;;30.67;20.58;;;;;;;3.08;100.00;101030.22;4949077;28;20031;-84
2021/03/01 00:07:14;;;;;;;22.27;18.48;;;;;;;4.40;100.00;101244.75;4954212;28;20396;-83
2021/03/01 00:09:41;;;;;;;27.77;17.58;;;;;;;3.79;100.00;101140.03;4954780;28;20117;-84
2021/03/01 00:12:09;;;;;;;26.10;16.70;;;;;;;4.45;100.00;101223.09;4955145;28;20053;-84
2021/03/01 00:14:36;;;;;;;25.55;20.10;;;;;;;3.75;100.00;101125.06;4973445;28;20031;-85
2021/03/01 00:17:03;;;;;;;26.63;20.52;;;;;;;3.37;100.00;101063.16;4954102;28;20037;-86
2021/03/01 00:19:30;;;;;;;30.05;19.40;;;;;;;3.66;100.00;101070.41;4966444;28;20030;-85
2021/03/01 00:22:00;;;;;;;25.48;16.80;;;;;;;3.89;100.00;101096.75;4973598;28;20033;-80
2021/03/01 00:24:27;;;;;;;22.05;15.90;;;;;;;3.05;100.00;100937.63;4954634;28;20035;-83
2021/03/01 00:26:54;;;;;;;28.60;19.20;;;;;;;3.27;100.00;100989.59;4947404;28;20558;-87
2021/03/01 00:29:21;;;;;;;28.23;19.75;;;;;;;4.16;100.00;101143.53;4943531;28;20599;-84
2021/03/01 00:31:48;;;;;;;31.17;18.40;;;;;;;4.04;100.00;101071.16;4953642;28;20381;-86
2021/03/01 00:34:15;;;;;;;28.38;19.65;;;;;;;3.89;100.00;101074.84;4966023;28;20035;-85
2021/03/01 00:36:42;;;;;;;24.33;17.75;;;;;;;4.13;100.00;101067.22;4958992;28;20049;-86
2021/03/01 00:39:10;;;;;;;25.58;17.17;;;;;;;3.44;100.00;100951.00;4972368;28;20038;-86
2021/03/01 00:41:37;;;;;;;23.10;16.48;;;;;;;3.91;100.00;100996.03;4962911;28;20050;-86
2021/03/01 00:44:04;;;;;;;23.45;18.10;;;;;;;4.43;100.00;101072.47;4954150;28;20039;-85
2021/03/01 00:46:31;;;;;;;18.98;16.65;;;;;;;3.76;100.00;100970.63;4955039;28;20093;-84
2021/03/01 00:48:58;;;;;;;20.50;16.17;;;;;;;4.51;100.00;101154.59;4948149;28;20026;-88
2021/03/01 00:51:25;;;;;;;23.88;14.73;;;;;;;4.34;100.00;101121.13;4971724;28;20476;-86
2021/03/01 00:53:52;;;;;;;25.73;14.40;;;;;;;5.00;100.00;101198.56;4952355;28;20054;-94
2021/03/01 00:56:19;;;;;;;18.40;14.93;;;;;;;4.52;100.00;101095.13;4962240;28;20138;-86
2021/03/01 00:58:46;;;;;;;16.58;13.52;;;;;;;4.59;100.00;101117.91;4966859;28;20035;-84
2021/03/01 01:01:13;;;;;;;17.13;14.18;;;;;;;4.98;100.00;101186.97;4953960;28;20122;-86
2021/03/01 01:03:40;;;;;;;18.52;14.38;;;;;;;4.74;100.00;101137.00;4954765;28;20038;-83
2021/03/01 01:06:07;;;;;;;16.98;12.75;;;;;;;3.65;100.00;100947.38;4951863;28;20112;-86
2021/03/01 01:08:34;;;;;;;15.75;12.88;;;;;;;4.82;100.00;101148.88;4969863;28;20023;-84
2021/03/01 01:11:01;;;;;;;20.10;13.93;;;;;;;4.18;100.00;101031.84;4977095;28;20031;-82
2021/03/01 01:13:28;;;;;;;16.65;13.15;;;;;;;3.65;100.00;100914.53;4977884;28;20030;-83
2021/03/01 01:15:56;;;;;;;18.50;12.65;;;;;;;4.28;100.00;101044.34;4962317;28;20049;-82
2021/03/01 01:18:23;;;;;;;19.98;12.30;;;;;;;5.08;100.00;101156.41;4955151;28;20026;-82
2021/03/01 01:20:50;;;;;;;16.55;10.93;;;;;;;4.80;100.00;101135.34;4970134;28;20035;-85
2021/03/01 01:23:18;;;;;;;17.75;14.40;;;;;;;3.45;100.00;100911.63;4965524;28;20026;-85
2021/03/01 01:25:45;;;;;;;16.58;13.35;;;;;;;4.60;100.00;101086.72;4967591;28;20060;-85
2021/03/01 01:28:12;;;;;;;16.90;13.32;;;;;;;4.45;100.00;101023.78;4962855;28;20030;-83
2021/03/01 01:30:39;;;;;;;17.42;14.02;;;;;;;5.10;100.00;101099.41;4980892;28;20026;-81
2021/03/01 01:33:06;;;;;;;17.10;13.55;;;;;;;4.52;100.00;100994.50;4986361;28;20054;-83
2021/03/01 01:35:33;;;;;;;15.73;11.70;;;;;;;5.06;100.00;101089.91;4979719;28;20035;-84
2021/03/01 01:38:00;;;;;;;17.05;12.77;;;;;;;4.83;100.00;101049.06;4958308;28;20023;-82
2021/03/01 01:40:27;;;;;;;14.40;12.20;;;;;;;5.11;100.00;101092.03;4977937;28;20027;-85
2021/03/01 01:42:54;;;;;;;16.25;13.13;;;;;;;4.91;100.00;101040.66;4984695;28;20027;-81
2021/03/01 01:45:24;;;;;;;16.92;14.20;;;;;;;5.31;100.00;101105.81;4971474;28;20495;-80
2021/03/01 01:47:53;;;;;;;19.65;15.77;;;;;;;5.25;100.00;101090.16;4975055;28;20440;-83
2021/03/01 01:50:22;;;;;;;19.02;15.75;;;;;;;5.06;100.00;101052.31;4968406;28;20504;-81
2021/03/01 01:52:51;;;;;;;20.13;16.75;;;;;;;5.05;100.00;101049.78;4950605;28;20825;-84
2021/03/01 01:55:18;;;;;;;21.77;16.75;;;;;;;3.73;100.00;100831.38;4952687;28;20030;-83
2021/03/01 01:57:45;;;;;;;20.30;16.45;;;;;;;5.23;100.00;101090.38;4966955;28;20047;-80
2021/03/01 02:02:59;;;;;;;30.13;22.60;;;;;;;5.12;100.00;101014.94;4974214;28;20113;-81
2021/03/01 02:05:27;;;;;;;38.88;31.92;;;;;;;4.89;100.00;100977.72;4956833;28;20054;-79
2021/03/01 02:07:57;;;;;;;40.03;30.95;;;;;;;5.33;100.00;101019.44;4974449;28;20035;-78
2021/03/01 02:10:32;;;;;;;27.88;23.92;;;;;;;4.77;100.00;100932.78;4960846;28;20042;-80
2021/03/01 02:13:21;;;;;;;26.02;20.30;;;;;;;5.10;100.00;100956.69;4971679;28;20030;-80
2021/03/01 02:15:58;;;;;;;23.48;18.83;;;;;;;5.43;100.00;101031.91;4970935;28;20440;-81
2021/03/01 02:18:25;;;;;;;22.77;17.02;;;;;;;3.85;100.00;100725.66;4968133;28;20034;-80
2021/03/01 02:20:53;;;;;;;20.63;14.52;;;;;;;4.22;100.00;100772.75;4971447;28;20180;-80
2021/03/01 02:23:21;;;;;;;22.13;17.42;;;;;;;5.58;100.00;100974.88;4971188;28;20038;-85
2021/03/01 02:26:01;;;;;;;15.63;13.98;;;;;;;5.44;100.00;100938.34;4955760;28;20417;-83
2021/03/01 02:28:36;;;;;;;16.73;13.40;;;;;;;5.66;100.00;100956.50;4970140;28;20041;-83
2021/03/01 02:31:06;;;;;;;19.38;14.75;;;;;;;5.31;100.00;100895.28;4970075;28;20025;-82
2021/03/01 02:33:38;;;;;;;26.20;14.48;;;;;;;5.76;100.00;100973.41;4970690;28;20023;-81
2021/03/01 02:36:22;;;;;;;14.52;12.38;;;;;;;5.38;100.00;100884.28;4973094;28;20039;-83
2021/03/01 02:38:53;;;;;;;13.52;11.55;;;;;;;5.71;100.00;100919.09;4962628;28;20030;-83
2021/03/01 02:41:23;;;;;;;14.13;10.55;;;;;;;5.32;100.00;100838.44;4967748;28;20362;-82
2021/03/01 02:43:52;;;;;;;11.68;8.30;;;;;;;5.68;100.00;100899.44;4957223;28;20043;-82
2021/03/01 02:46:21;;;;;;;10.75;9.63;;;;;;;5.61;100.00;100883.81;4964873;28;20053;-81
2021/03/01 02:48:50;;;;;;;14.63;10.60;;;;;;;5.71;100.00;100868.81;4973205;28;20018;-80
2021/03/01 02:51:17;;;;;;;13.45;10.20;;;;;;;5.71;100.00;100868.81;4968932;28;20440;-81
2021/03/01 02:53:46;;;;;;;11.23;8.68;;;;;;;6.09;100.00;100934.06;4971182;28;20034;-82
2021/03/01 02:56:16;;;;;;;12.90;9.02;;;;;;;5.76;100.00;100890.97;4973084;28;20082;-81
2021/03/01 02:58:45;;;;;;;10.85;9.52;;;;;;;6.20;100.00;100939.94;4955281;28;20031;-81
2021/03/01 03:01:13;;;;;;;11.63;7.90;;;;;;;6.22;100.00;100924.94;4973028;28;20033;-81
2021/03/01 03:03:41;;;;;;;9.43;8.40;;;;;;;6.15;100.00;100922.22;4972958;28;20030;-82
2021/03/01 03:06:20;;;;;;;11.93;9.07;;;;;;;5.94;100.00;100875.72;4953543;28;20035;-81
2021/03/01 03:08:51;;;;;;;13.90;10.20;;;;;;;6.02;100.00;100895.59;4971389;28;20387;-80
2021/03/01 03:11:20;;;;;;;10.73;9.30;;;;;;;5.89;100.00;100868.13;4969212;28;20018;-81
2021/03/01 03:13:51;;;;;;;10.45;7.95;;;;;;;5.64;100.00;100824.03;4967698;28;20034;-82
2021/03/01 03:16:22;;;;;;;10.90;8.73;;;;;;;6.25;100.00;100937.41;4970378;28;20019;-81
2021/03/01 03:18:49;;;;;;;14.57;9.95;;;;;;;6.03;100.00;100846.97;4967477;28;20033;-81
2021/03/01 03:21:17;;;;;;;15.60;9.82;;;;;;;6.08;100.00;100877.41;4955997;28;20481;-80
2021/03/01 03:23:44;;;;;;;11.90;9.13;;;;;;;5.61;100.00;100801.41;4969942;28;20082;-81
2021/03/01 03:26:13;;;;;;;13.10;9.88;;;;;;;5.64;100.00;100810.28;4968747;28;20043;-80
2021/03/01 03:28:44;;;;;;;13.27;10.50;;;;;;;6.21;100.00;100905.88;4967754;28;20046;-81
2021/03/01 03:31:14;;;;;;;13.95;10.15;;;;;;;6.02;100.00;100859.03;4968536;28;20058;-81
2021/03/01 03:33:41;;;;;;;;;;;;;;;6.36;100.00;100878.97;4959717;28;20365;-80
2021/03/01 03:36:10;;;;;;;16.13;10.80;;;;;;;6.09;100.00;100834.25;4971352;28;19918;-82
2021/03/01 03:38:48;;;;;;;15.82;8.48;;;;;;;6.11;100.00;100816.47;4971244;28;20089;-82
2021/03/01 03:41:27;;;;;;;9.43;8.43;;;;;;;4.41;100.00;100548.22;4961921;28;20039;-83
2021/03/01 03:43:55;;;;;;;11.00;9.90;;;;;;;5.40;100.00;100694.59;4972199;28;20027;-81
2021/03/01 03:46:27;;;;;;;9.77;8.75;;;;;;;5.98;100.00;100784.38;4971025;28;20034;-80
2021/03/01 03:48:55;;;;;;;8.20;7.28;;;;;;;5.80;100.00;100729.28;4960260;28;20383;-80
2021/03/01 03:51:25;;;;;;;9.70;8.02;;;;;;;5.89;100.00;100731.56;4967584;28;20118;-81
2021/03/01 03:53:57;;;;;;;10.80;7.30;;;;;;;6.19;100.00;100776.06;4967876;28;20089;-81
2021/03/01 03:56:29;;;;;;;10.45;9.35;;;;;;;6.07;100.00;100745.66;4961851;28;20154;-82
2021/03/01 03:59:03;;;;;;;8.55;7.65;;;;;;;5.91;100.00;100716.75;4971374;28;20031;-82
2021/03/01 04:01:33;;;;;;;11.07;9.55;;;;;;;6.31;100.00;100757.81;4971807;28;20018;-81
2021/03/01 04:04:05;;;;;;;10.57;8.10;;;;;;;5.95;100.00;100688.59;4971334;28;20473;-82
2021/03/01 04:06:36;;;;;;;11.15;9.38;;;;;;;6.52;100.00;100763.97;4957776;28;20051;-82
2021/03/01 04:09:10;;;;;;;13.05;10.70;;;;;;;6.47;100.00;100761.06;4968472;28;20046;-81
2021/03/01 04:11:42;;;;;;;12.65;11.38;;;;;;;6.40;100.00;100728.97;4967580;28;20114;-81
2021/03/01 04:14:15;;;;;;;13.45;10.98;;;;;;;6.08;100.00;100668.50;4953514;28;20030;-82
2021/03/01 04:16:47;;;;;;;11.52;9.70;;;;;;;6.44;100.00;100734.84;4969923;28;20061;-80
2021/03/01 04:19:16;;;;;;;14.55;11.65;;;;;;;6.33;100.00;100688.81;4973778;28;20488;-80
2021/03/01 04:21:44;;;;;;;12.43;10.70;;;;;;;6.25;100.00;100667.94;4973626;28;20026;-81
2021/03/01 04:24:13;;;;;;;15.10;10.45;;;;;;;6.49;100.00;100701.19;4970788;28;20086;-82
2021/03/01 04:26:40;;;;;;;15.35;12.40;;;;;;;6.18;100.00;100645.16;4979420;28;20045;-80
2021/03/01 04:29:08;;;;;;;13.68;11.13;;;;;;;6.30;100.00;100670.84;4971838;28;20076;-80
2021/03/01 04:31:36;;;;;;;11.70;9.77;;;;;;;6.03;100.00;100610.59;4970766;28;20026;-79
2021/03/01 04:34:05;;;;;;;11.40;9.05;;;;;;;6.47;100.00;100673.88;4964633;28;20843;-83
2021/03/01 04:36:33;;;;;;;8.93;7.60;;;;;;;5.77;100.00;100560.25;4971944;28;20125;-83
2021/03/01 04:39:00;;;;;;;12.40;8.50;;;;;;;6.43;100.00;100659.75;4965051;28;20034;-84
2021/03/01 04:41:28;;;;;;;9.32;8.32;;;;;;;5.58;100.00;100518.94;4970579;28;20089;-82
2021/03/01 04:43:56;;;;;;;10.68;8.80;;;;;;;6.07;100.00;100573.31;4971586;28;20026;-83
2021/03/01 04:46:23;;;;;;;11.32;8.25;;;;;;;6.15;100.00;100570.31;4968552;28;20059;-82
2021/03/01 04:48:52;;;;;;;9.65;6.53;;;;;;;6.32;100.00;100586.25;4953519;28;20021;-83
2021/03/01 04:51:19;;;;;;;8.02;7.18;;;;;;;6.05;100.00;100539.75;4955032;28;20085;-83
2021/03/01 04:53:46;;;;;;;9.95;7.30;;;;;;;6.22;100.00;100569.41;4969143;28;20034;-83
2021/03/01 04:56:13;;;;;;;9.68;6.50;;;;;;;6.14;100.00;100563.13;4957566;28;20077;-83
2021/03/01 04:58:42;;;;;;;8.90;6.55;;;;;;;6.38;100.00;100620.25;4971654;28;20161;-85
2021/03/01 05:01:11;;;;;;;9.90;6.80;;;;;;;6.40;100.00;100648.34;4969955;28;20116;-83
2021/03/01 05:03:39;;;;;;;7.45;6.35;;;;;;;6.09;100.00;100579.47;4969732;28;20031;-84
2021/03/01 05:06:06;;;;;;;7.18;6.20;;;;;;;5.10;100.00;100426.19;4955297;28;20039;-84
2021/03/01 05:08:36;;;;;;;10.10;5.90;;;;;;;6.43;100.00;100632.25;4969707;28;20516;-85
2021/03/01 05:11:06;;;;;;;8.93;6.67;;;;;;;5.97;100.00;100554.59;4972062;28;20114;-82
2021/03/01 05:13:34;;;;;;;8.35;6.88;;;;;;;5.66;100.00;100490.38;4959058;28;20389;-83
2021/03/01 05:16:01;;;;;;;6.53;5.93;;;;;;;5.74;100.00;100535.94;4973616;28;20034;-85
2021/03/01 05:18:29;;;;;;;6.25;5.65;;;;;;;5.87;100.00;100551.47;4966576;28;20058;-86
2021/03/01 05:20:57;;;;;;;8.45;6.28;;;;;;;6.37;100.00;100638.63;4943785;28;20031;-86
2021/03/01 05:23:24;;;;;;;11.23;5.97;;;;;;;6.44;100.00;100633.91;4978499;28;20046;-85
2021/03/01 05:25:52;;;;;;;7.00;5.82;;;;;;;5.83;100.00;100573.06;4952936;28;20019;-85
2021/03/01 05:28:28;;;;;;;6.75;5.93;;;;;;;3.94;100.00;100247.78;4971618;28;20041;-84
2021/03/01 05:30:55;;;;;;;7.05;6.32;;;;;;;5.86;100.00;100558.91;4970384;28;20027;-83
2021/03/01 05:33:22;;;;;;;9.27;7.75;;;;;;;5.84;100.00;100541.78;4958441;28;20180;-83
2021/03/01 05:35:49;;;;;;;7.68;6.72;;;;;;;6.04;100.00;100559.22;4972110;28;20041;-83
2021/03/01 05:38:16;;;;;;;6.85;6.25;;;;;;;6.07;100.00;100595.31;4976569;28;20039;-85
2021/03/01 05:40:43;;;;;;;7.95;6.35;;;;;;;5.88;100.00;100551.25;4955475;28;20114;-85
2021/03/01 05:43:13;;;;;;;10.00;8.55;;;;;;;5.99;100.00;100568.09;4972113;28;20022;-84
2021/03/01 05:45:41;;;;;;;10.57;8.05;;;;;;;5.95;100.00;100572.38;4956985;28;20034;-83
2021/03/01 05:48:11;;;;;;;12.85;11.05;;;;;;;5.89;100.00;100565.84;4955988;28;20042;-86
2021/03/01 05:50:42;;;;;;;11.20;10.05;;;;;;;5.88;100.00;100573.25;4972474;28;20027;-86
2021/03/01 05:53:12;;;;;;;18.92;16.08;;;;;;;6.23;100.00;100648.09;4954511;28;20051;-85
2021/03/01 05:55:40;;;;;;;10.95;9.73;;;;;;;4.74;100.00;100488.81;4954142;28;20377;-87
2021/03/01 05:58:09;;;;;;;10.57;9.55;;;;;;;5.38;100.00;100570.41;4966752;28;20138;-83
2021/03/01 06:00:36;;;;;;;13.50;11.85;;;;;;;5.62;100.00;100659.44;4971397;28;20041;-86
2021/03/01 06:03:04;;;;;;;15.90;11.98;;;;;;;5.23;100.00;100585.25;4972753;28;20022;-85
2021/03/01 06:05:31;;;;;;;10.20;8.68;;;;;;;5.35;100.00;100665.03;4955384;28;20153;-83
2021/03/01 06:07:58;;;;;;;8.32;6.80;;;;;;;4.61;100.00;100585.69;4971313;28;20034;-83
2021/03/01 06:10:25;;;;;;;9.63;6.68;;;;;;;4.58;100.00;100595.19;4962420;28;20042;-83
2021/03/01 06:12:53;;;;;;;8.43;5.75;;;;;;;4.67;100.00;100647.91;4946523;28;20066;-84
2021/03/01 06:15:21;;;;;;;5.03;4.53;;;;;;;4.33;100.00;100581.34;4972418;28;20011;-84
2021/03/01 06:18:08;;;;;;;4.88;3.65;;;;;;;4.64;100.00;100676.59;4969295;28;20126;-84
2021/03/01 06:20:36;;;;;;;5.25;3.47;;;;;;;3.81;100.00;100573.75;4968889;28;20062;-84
2021/03/01 06:23:04;;;;;;;4.72;3.78;;;;;;;4.03;100.00;100620.13;4960191;28;20038;-85
2021/03/01 06:25:32;;;;;;;3.85;3.55;;;;;;;3.95;100.00;100589.16;4954066;28;20030;-86
2021/03/01 06:28:01;;;;;;;3.55;3.35;;;;;;;4.09;100.00;100661.22;4957831;28;20383;-89
2021/03/01 06:30:31;;;;;;;3.80;3.45;;;;;;;4.19;100.00;100695.59;4961513;28;20031;-89
2021/03/01 06:33:16;;;;;;;3.57;1.90;;;;;;;3.44;100.00;100650.75;4961007;28;20057;-89
2021/03/01 06:35:52;;;;;;;5.32;2.72;;;;;;;4.11;100.00;100715.81;4961153;28;20304;-89
2021/03/01 06:38:27;;;;;;;3.47;2.20;;;;;;;3.52;100.00;100656.03;4951120;28;20465;-87
2021/03/01 06:41:13;;;;;;;2.22;2.03;;;;;;;3.87;100.00;100714.50;4973477;28;20025;-89
2021/03/01 06:44:02;;;;;;;2.67;2.35;;;;;;;3.49;100.00;100693.91;4955641;28;20112;-88
2021/03/01 06:46:30;;;;;;;2.50;1.80;;;;;;;3.52;100.00;100718.16;4967408;28;20397;-89
2021/03/01 06:49:13;;;;;;;7.03;2.40;;;;;;;3.56;100.00;100731.25;4966028;28;20038;-83
2021/03/01 06:51:40;;;;;;;3.55;2.45;;;;;;;3.01;100.00;100660.03;4963824;28;20027;-85
2021/03/01 06:54:07;;;;;;;6.47;2.30;;;;;;;2.53;100.00;100562.38;4955456;28;20031;-82
2021/03/01 06:56:42;;;;;;;2.15;1.95;;;;;;;2.98;100.00;100664.00;4987117;28;20097;-82
2021/03/01 06:59:17;;;;;;;2.20;2.05;;;;;;;3.39;100.00;100757.28;4977522;28;20043;-82
2021/03/01 07:01:52;;;;;;;2.10;2.00;;;;;;;3.26;100.00;100768.97;4959152;28;20037;-84
2021/03/01 07:04:37;;;;;;;2.42;2.22;;;;;;;2.71;100.00;100652.06;4955893;28;20377;-82
2021/03/01 07:07:04;;;;;;;5.10;1.92;;;;;;;2.35;100.00;100629.31;4967437;28;20085;-80
2021/03/01 07:09:34;;;;;;;6.10;2.55;;;;;;;2.73;100.00;100674.56;4970966;28;20391;-83
2021/03/01 07:12:01;;;;;;;2.97;2.22;;;;;;;2.18;100.00;100555.88;4966307;28;20492;-82
2021/03/01 07:14:30;;;;;;;1.63;1.52;;;;;;;2.76;100.00;100678.81;4973027;28;20446;-83
2021/03/01 07:17:01;;;;;;;2.70;2.50;;;;;;;2.13;100.00;100584.84;4957868;28;20031;-83
2021/03/01 07:19:31;;;;;;;4.65;2.10;;;;;;;2.22;100.00;100610.94;4972978;28;20031;-87
2021/03/01 07:22:00;;;;;;;2.88;2.13;;;;;;;2.00;100.00;100567.28;4972373;28;20027;-86
2021/03/01 07:24:30;;;;;;;1.70;1.60;;;;;;;1.66;100.00;100508.81;4965838;28;20030;-87
2021/03/01 07:26:59;;;;;;;2.80;1.92;;;;;;;3.17;100.00;100771.03;4962365;28;20039;-89
2021/03/01 07:29:31;;;;;;;5.32;3.40;;;;;;;3.20;100.00;100747.91;4970509;28;20031;-86
2021/03/01 07:32:13;;;;;;;4.60;2.92;;;;;;;2.62;100.00;100642.34;4955747;28;20026;-84
2021/03/01 07:34:41;;;;;;;2.55;2.35;;;;;;;3.11;100.00;100747.22;4956028;28;20110;-88
2021/03/01 07:37:09;;;;;;;3.88;3.47;;;;;;;2.66;100.00;100698.31;4980357;28;20026;-87
2021/03/01 07:39:39;;;;;;;6.35;3.25;;;;;;;3.22;100.00;100740.34;4969814;28;20126;-89
2021/03/01 07:42:07;;;;;;;4.57;2.92;;;;;;;1.95;100.00;100533.44;4974650;28;20460;-87
2021/03/01 07:44:35;;;;;;;5.68;3.35;;;;;;;3.29;100.00;100736.56;4959548;28;20437;-86
2021/03/01 07:47:04;;;;;;;5.03;3.05;;;;;;;2.33;100.00;100566.66;4950512;28;20034;-89
2021/03/01 07:49:41;;;;;;;4.18;2.30;;;;;;;3.16;100.00;100684.53;4955273;28;20137;-86
2021/03/01 07:52:28;;;;;;;3.55;2.50;;;;;;;3.23;100.00;100703.72;4973143;28;20034;-89
2021/03/01 07:54:57;;;;;;;3.33;2.67;;;;;;;3.20;100.00;100715.91;4957031;28;20518;-91
2021/03/01 07:57:29;;;;;;;4.47;2.17;;;;;;;3.17;100.00;100742.81;4963113;28;20100;-91
2021/03/01 08:00:16;;;;;;;4.13;2.28;;;;;;;2.28;100.00;100642.94;4955667;28;20069;-90
2021/03/01 08:02:44;;;;;;;5.32;1.67;;;;;;;2.21;100.00;100562.81;4950178;28;20062;-87
2021/03/01 08:05:30;;;;;;;2.28;1.98;;;;;;;3.03;100.00;100726.31;4967392;28;20038;-88
2021/03/01 08:07:58;;;;;;;4.03;2.28;;;;;;;3.03;100.00;100714.53;4955459;28;20038;-87
2021/03/01 08:10:28;;;;;;;4.70;1.85;;;;;;;3.03;100.00;100739.16;4962791;28;20062;-89
2021/03/01 08:13:00;;;;;;;2.40;2.20;;;;;;;2.44;100.00;100635.50;4962970;28;20452;-87
2021/03/01 08:15:47;;;;;;;4.13;2.13;;;;;;;2.95;100.00;100760.16;4959727;28;20062;-87
2021/03/01 08:18:14;;;;;;;2.38;2.20;;;;;;;2.93;100.00;100750.44;4977736;28;20030;-89
2021/03/01 08:20:44;;;;;;;2.97;2.78;;;;;;;2.94;100.00;100763.94;4962508;28;20058;-89
2021/03/01 08:23:12;;;;;;;4.40;2.60;;;;;;;0.56;100.00;100443.53;4961386;28;20034;-93
2021/03/01 08:25:49;;;;;;;3.53;3.22;;;;;;;2.84;100.00;100736.94;4957562;28;20450;-94
2021/03/01 08:28:16;;;;;;;2.50;2.30;;;;;;;2.76;100.00;100783.56;4958145;28;20030;-90
2021/03/01 08:30:50;;;;;;;4.47;4.07;;;;;;;2.53;100.00;100726.38;4956391;28;20034;-87
2021/03/01 08:33:17;;;;;;;3.42;3.13;;;;;;;2.72;100.00;100779.53;4954967;28;20102;-85
2021/03/01 08:36:10;;;;;;;5.65;4.57;;;;;;;1.52;100.00;100587.00;4970952;28;20049;-84
2021/03/01 08:38:45;;;;;;;3.47;3.17;;;;;;;2.64;100.00;100787.84;4953904;28;20115;-85
2021/03/01 08:41:18;;;;;;;4.95;4.53;;;;;;;2.57;100.00;100779.59;4966432;28;20480;-87
2021/03/01 08:43:52;;;;;;;5.32;4.32;;;;;;;2.50;100.00;100765.88;4958109;28;20598;-88
2021/03/01 08:46:21;;;;;;;3.05;2.85;;;;;;;2.13;100.00;100733.16;4959437;28;20035;-88
2021/03/01 08:48:52;;;;;;;3.13;2.90;;;;;;;2.65;100.00;100767.69;4953852;28;20030;-89
2021/03/01 08:51:20;;;;;;;6.35;3.47;;;;;;;1.68;100.00;100635.03;4969881;28;20107;-85
2021/03/01 08:53:51;;;;;;;4.55;4.13;;;;;;;2.08;100.00;100697.38;4974337;28;20031;-90
2021/03/01 08:56:21;;;;;;;;;;;;;;;2.48;100.00;100751.56;4960193;28;20122;-88
2021/03/01 08:58:48;;;;;;;;;;;;;;;2.62;100.00;100762.63;4955827;28;20117;-88
2021/03/01 09:01:15;;;;;;;3.80;3.40;;;;;;;1.85;100.00;100660.19;4970447;28;20410;-86
2021/03/01 09:03:43;;;;;;;3.88;3.42;;;;;;;1.16;100.00;100553.28;4970866;28;20034;-85
2021/03/01 09:06:15;;;;;;;3.15;2.78;;;;;;;2.41;100.00;100769.78;4969541;28;20673;-85
2021/03/01 09:08:47;;;;;;;4.75;3.47;;;;;;;2.34;100.00;100761.53;4977379;28;20045;-86
2021/03/01 09:11:18;;;;;;;3.85;3.42;;;;;;;1.66;100.00;100655.38;4973135;28;20029;-85
2021/03/01 09:13:48;;;;;;;3.83;3.53;;;;;;;2.33;100.00;100788.00;4966003;28;20042;-81
2021/03/01 09:16:24;;;;;;;4.15;3.22;;;;;;;2.35;100.00;100795.16;4975170;28;20041;-88
2021/03/01 09:18:53;;;;;;;3.42;3.03;;;;;;;1.61;100.00;100705.09;4974091;28;20603;-86
2021/03/01 09:21:20;;;;;;;4.45;3.75;;;;;;;2.04;100.00;100754.28;4959604;28;20015;-89
2021/03/01 09:23:55;;;;;;;4.43;4.03;;;;;;;2.24;100.00;100797.38;4952964;28;20023;-89
2021/03/01 09:26:30;;;;;;;4.13;3.65;;;;;;;1.99;100.00;100775.03;4961675;28;20035;-88
2021/03/01 09:29:06;;;;;;;4.22;3.83;;;;;;;1.34;100.00;100669.28;4959395;28;20170;-86
2021/03/01 09:31:43;;;;;;;5.82;4.22;;;;;;;1.71;100.00;100767.53;4970476;28;20088;-87
2021/03/01 09:34:12;;;;;;;5.05;4.55;;;;;;;2.24;100.00;100838.34;4948891;28;20070;-84
2021/03/01 09:36:47;;;;;;;4.90;4.40;;;;;;;2.01;100.00;100822.09;4961577;28;20030;-83
2021/03/01 09:39:21;;;;;;;5.63;4.85;;;;;;;1.32;100.00;100712.28;4975878;28;20297;-85
2021/03/01 09:41:49;;;;;;;3.88;3.50;;;;;;;1.57;100.00;100793.81;4956226;28;20108;-84
2021/03/01 09:44:27;;;;;;;4.53;4.13;;;;;;;2.02;100.00;100857.41;4976480;28;20022;-82
2021/03/01 09:46:57;;;;;;;5.40;3.75;;;;;;;1.68;100.00;100790.63;4978357;28;20036;-82
2021/03/01 09:49:26;;;;;;;10.38;6.40;;;;;;;1.54;100.00;100805.97;4973844;28;20117;-82
2021/03/01 09:51:54;;;;;;;6.32;5.57;;;;;;;1.81;100.00;100846.41;4974804;28;20014;-82
2021/03/01 09:54:26;;;;;;;9.40;6.55;;;;;;;1.93;100.00;100880.41;4973865;28;20475;-85
2021/03/01 09:56:54;;;;;;;6.60;6.00;;;;;;;1.61;100.00;100849.72;4955757;28;20077;-86
2021/03/01 09:59:44;;;;;;;6.85;5.95;;;;;;;2.09;99.08;100923.06;4954932;28;20101;-82
2021/03/01 10:02:12;;;;;;;;;;;;;;;2.11;99.34;100934.66;4966926;28;20037;-80
2021/03/01 10:04:40;;;;;;;5.93;4.80;;;;;;;2.08;100.00;100947.84;4968839;28;19914;-83
2021/03/01 10:07:38;;;;;;;7.18;6.43;;;;;;;1.94;99.95;100930.38;4969184;28;20022;-80
2021/03/01 10:10:16;;;;;;;6.28;4.97;;;;;;;2.05;99.77;100954.50;4930005;28;20047;-82
2021/03/01 10:12:51;;;;;;;8.32;5.80;;;;;;;1.59;98.44;100892.72;4972573;28;20039;-83
2021/03/01 10:15:19;;;;;;;7.57;6.20;;;;;;;1.98;98.50;100981.75;4972889;28;20015;-84
2021/03/01 10:17:47;;;;;;;6.30;5.65;;;;;;;1.92;98.03;100977.03;4972482;28;20030;-84
2021/03/01 10:20:15;;;;;;;6.63;5.90;;;;;;;0.91;98.65;100848.03;4971935;28;20030;-84
2021/03/01 10:23:25;;;;;;;6.57;5.68;;;;;;;1.50;98.22;100939.19;4970941;28;20038;-83
2021/03/01 10:26:21;;;;;;;6.95;6.25;;;;;;;1.29;98.75;100900.88;4927535;28;20523;-84
2021/03/01 10:29:00;;;;;;;6.50;5.90;;;;;;;1.63;98.49;100973.22;4973614;28;20062;-82
2021/03/01 10:31:39;;;;;;;5.72;5.13;;;;;;;1.57;98.77;100979.41;4969229;28;20033;-84
2021/03/01 10:34:10;;;;;;;5.72;4.65;;;;;;;0.86;98.21;100876.88;4969983;28;20039;-83
2021/03/01 10:36:55;;;;;;;7.88;4.20;;;;;;;1.49;98.69;101005.72;4972544;28;20089;-84
2021/03/01 10:39:44;;;;;;;4.70;4.30;;;;;;;1.46;98.86;101007.97;4971038;28;20027;-83
2021/03/01 10:42:14;;;;;;;5.25;4.80;;;;;;;-0.01;97.88;100776.16;4968670;28;20436;-82
2021/03/01 10:44:42;;;;;;;7.97;5.95;;;;;;;1.34;97.43;101002.97;4953036;28;20054;-82
2021/03/01 10:47:14;;;;;;;5.70;5.20;;;;;;;1.33;97.98;101004.00;4967932;28;20041;-82
2021/03/01 10:49:42;;;;;;;5.90;5.13;;;;;;;1.33;98.31;101006.72;4969793;28;20027;-82
2021/03/01 10:52:10;;;;;;;6.60;5.80;;;;;;;1.27;98.08;101029.28;4968191;28;20113;-82
2021/03/01 10:54:38;;;;;;;5.30;4.88;;;;;;;1.28;98.60;101033.69;4948783;28;20077;-82
2021/03/01 10:57:05;;;;;;;6.95;6.18;;;;;;;0.33;98.77;100885.72;4969456;28;20051;-82
2021/03/01 10:59:33;;;;;;;6.38;5.72;;;;;;;0.71;98.72;100945.78;4971434;28;20031;-83
2021/03/01 11:02:01;;;;;;;7.72;6.10;;;;;;;0.53;98.66;100946.06;4972054;28;20031;-83
2021/03/01 11:04:28;;;;;;;7.88;6.70;;;;;;;0.25;98.25;100889.38;4966954;28;20035;-84
2021/03/01 11:06:55;;;;;;;9.15;6.53;;;;;;;0.66;98.29;100973.56;4967297;28;20042;-82
2021/03/01 11:09:24;;;;;;;7.80;6.75;;;;;;;0.93;98.16;101028.63;4971853;28;20026;-82
2021/03/01 11:11:52;;;;;;;8.32;6.05;;;;;;;0.56;98.03;100967.50;4968398;28;20023;-82
2021/03/01 11:14:20;;;;;;;9.55;7.00;;;;;;;0.39;98.15;100964.88;4971394;28;20073;-86
2021/03/01 11:16:47;;;;;;;8.02;5.65;;;;;;;1.08;98.29;101052.41;4958589;28;20035;-86
2021/03/01 11:19:16;;;;;;;8.18;7.38;;;;;;;1.01;98.31;101054.16;4961957;28;20189;-83
2021/03/01 11:21:44;;;;;;;7.85;6.60;;;;;;;0.57;98.68;100987.41;4956860;28;20404;-85
2021/03/01 11:24:12;;;;;;;9.75;6.45;;;;;;;-0.27;97.67;100875.28;4963938;28;20031;-87
2021/03/01 11:26:39;;;;;;;9.48;7.18;;;;;;;0.64;97.92;101018.38;4947783;28;20111;-86
2021/03/01 11:29:06;;;;;;;11.48;7.40;;;;;;;0.87;98.60;101039.41;4980296;28;20585;-85
2021/03/01 11:31:34;;;;;;;8.98;7.65;;;;;;;0.10;97.35;100933.69;4952085;28;20049;-85
2021/03/01 11:34:03;;;;;;;7.47;6.45;;;;;;;0.93;97.58;101072.25;4954387;28;20077;-84
2021/03/01 11:36:30;;;;;;;7.75;7.03;;;;;;;-0.02;97.59;100908.72;4969653;28;20039;-86
2021/03/01 11:38:57;;;;;;;7.03;6.30;;;;;;;0.28;97.90;100976.16;4951299;28;20053;-84
2021/03/01 11:41:26;;;;;;;8.32;6.63;;;;;;;0.30;97.79;100995.03;4972697;28;20077;-83